Latest Weather Observations for Mount Hotham Airport

IDV60801

Issued at 5:02 pm EST Tuesday 26 May 2020 (issued every 10 minutes, with the page automatically refreshed every 10 minutes)

About weather observations | Map of weather stations | Latest weather observations for VIC | Other Formats
Station Details ID: 083055 Name: MOUNT HOTHAM AIRPORT Lat: -37.05 Lon: 147.33 Height: 1295.4 m
Data from the previous 72 hours. | See also: Recent months at Mount Hotham Airport
Date/Time
EST
Temp
°C
App
Temp
°C
Dew
Point
°C
Rel
Hum
%
Delta-T
°C
Wind Press
QNH
hPa
Press
MSL
hPa
Rain since
9am
mm
Dir  Spd
km/h
Gust
km/h
Spd
kts
Gust
kts
26/05:00pm 6.1 3.9 3.3 82 1.3 NE 4 6 2 3 1023.6 1023.6 0.0
26/04:30pm 8.5 6.0 4.5 76 1.9 NE 7 7 4 4 1023.6 1023.6 0.0
26/04:00pm 10.3 7.4 4.7 68 2.7 E 9 11 5 6 1023.6 1023.6 0.0
26/03:30pm 11.2 8.8 5.1 66 3.0 E 7 11 4 6 1023.5 1023.5 0.0
26/03:00pm 11.5 9.1 5.2 65 3.1 ESE 7 13 4 7 1023.7 1023.7 0.0
26/02:30pm 11.4 8.8 4.4 62 3.4 ESE 7 11 4 6 1023.8 1023.9 0.0
26/02:00pm 11.3 8.8 4.5 63 3.3 SE 7 13 4 7 1023.9 1024.0 0.0
26/01:30pm 11.3 8.4 4.7 64 3.2 ESE 9 15 5 8 1024.0 1024.1 0.0
26/01:00pm 11.0 8.6 5.1 67 2.9 SE 7 11 4 6 1024.3 1024.3 0.0
26/12:30pm 10.7 7.9 5.0 68 2.8 ESE 9 11 5 6 1024.6 1024.7 0.0
26/12:00pm 10.4 8.1 5.0 69 2.6 ESE 6 9 3 5 1025.3 1025.4 0.0
26/11:30am 9.8 7.2 4.2 68 2.7 ESE 7 11 4 6 1025.7 1025.8 0.0
26/11:00am 9.1 6.0 3.7 69 2.5 SE 9 11 5 6 1026.2 1026.3 0.0
26/10:30am 9.4 6.9 3.6 67 2.7 E 6 7 3 4 1026.4 1026.5 0.0
26/10:00am 7.3 4.9 4.1 80 1.5 ESE 6 7 3 4 1026.5 1026.7 0.0
26/09:30am 5.9 3.4 4.7 92 0.6 SE 7 7 4 4 1026.2 1026.3 0.0
26/09:00am 6.7 5.2 6.6 99 0.0 NW 4 11 2 6 1026.2 1026.3 0.0
26/08:30am 4.9 3.7 4.8 99 0.0 CALM 0 2 0 1 1025.8 1026.0 0.0
26/08:00am 2.9 0.6 2.8 99 0.0 WNW 4 6 2 3 1025.6 1025.7 0.0
26/07:30am 1.7 -0.8 1.6 99 0.0 WNW 4 6 2 3 1025.5 1025.6 0.0
26/07:00am 0.1 -1.9 0.0 99 0.0 CALM 0 0 0 0 1025.2 1025.3 0.0
26/06:38am -0.9 -3.4 -1.0 99 0.0 SSE 2 4 1 2 1024.9 1025.0 0.0
26/06:30am -0.9 -3.0 -1.0 99 0.0 CALM 0 2 0 1 1024.8 1024.9 0.0
26/06:00am -0.8 -4.1 -0.9 99 0.0 N 6 7 3 4 1024.6 1024.7 0.0
26/05:30am 0.0 -2.4 -0.1 99 0.0 WNW 2 4 1 2 1024.5 1024.6 0.0
26/05:00am -0.1 -3.3 -0.2 99 0.0 NNW 6 7 3 4 1024.4 1024.4 0.0
26/04:30am -1.1 -3.6 -1.2 99 0.0 WSW 2 4 1 2 1024.5 1024.6 0.0
26/04:00am -0.7 -3.6 -0.8 99 0.0 E 4 6 2 3 1024.7 1024.8 0.0
26/03:30am 0.7 -2.0 0.6 99 0.0 ENE 4 9 2 5 1024.8 1024.9 0.0
26/03:24am 0.8 -2.2 0.7 99 0.0 N 6 9 3 5 1024.9 1025.0 0.0
26/03:00am 1.0 -2.2 0.9 99 0.0 N 7 11 4 6 1025.2 1025.3 0.0
26/02:46am 1.6 -1.9 1.5 99 0.0 NNW 9 13 5 7 1025.3 1025.4 0.0
26/02:30am 1.8 -1.2 1.7 99 0.0 N 7 11 4 6 1025.5 1025.6 0.0
26/02:00am 1.7 -1.4 1.6 99 0.0 NE 7 11 4 6 1025.5 1025.6 0.0
26/01:30am 2.0 -1.0 1.9 99 0.0 NNE 7 13 4 7 1025.5 1025.6 0.0
26/01:15am 1.9 -1.1 1.8 99 0.0 NE 7 9 4 5 1025.6 1025.7 0.0
26/01:13am 1.9 -1.1 1.8 99 0.0 NE 7 9 4 5 1025.6 1025.7 0.0
26/01:00am 1.9 -0.9 1.8 99 0.0 ENE 6 11 3 6 1025.7 1025.8 0.0
26/12:59am 1.9 -0.9 1.8 99 0.0 ENE 6 11 3 6 1025.7 1025.8 0.0
26/12:39am 1.9 -0.6 1.8 99 0.0 ENE 4 6 2 3 1025.8 1026.0 0.0
26/12:30am 2.0 -0.4 1.9 99 0.0 ENE 4 6 2 3 1026.0 1026.1 0.0
26/12:19am 2.2 -0.2 2.1 99 0.0 ENE 4 6 2 3 1026.1 1026.2 0.0
26/12:00am 2.3 -0.1 2.2 99 0.0 ENE 4 6 2 3 1026.1 1026.2 0.0
 
Date/Time
EST
Temp
°C
App
Temp
°C
Dew
Point
°C
Rel
Hum
%
Delta-T
°C
Wind Press
QNH
hPa
Press
MSL
hPa
Rain since
9am
mm
Dir  Spd
km/h
Gust
km/h
Spd
kts
Gust
kts
25/11:50pm 2.2 -0.2 2.1 99 0.0 ENE 4 6 2 3 1026.1 1026.2 0.0
25/11:31pm 2.3 -0.1 2.2 99 0.0 ENE 4 6 2 3 1026.2 1026.3 0.0
25/11:30pm 2.3 -0.1 2.2 99 0.0 ENE 4 6 2 3 1026.2 1026.3 0.0
25/11:00pm 2.2 -0.2 2.1 99 0.0 ENE 4 6 2 3 1026.1 1026.2 0.0
25/10:30pm 1.8 -1.2 1.7 99 0.0 E 7 9 4 5 1026.2 1026.3 0.0
25/10:27pm 2.0 -0.8 1.9 99 0.0 E 6 9 3 5 1026.1 1026.2 0.0
25/10:00pm 2.7 0.4 2.6 99 0.0 E 4 6 2 3 1026.2 1026.3 0.0
25/09:30pm 2.8 0.1 2.7 99 0.0 ESE 6 9 3 5 1026.0 1026.1 0.0
25/09:00pm 2.8 -0.5 2.7 99 0.0 ESE 9 15 5 8 1025.8 1026.0 0.0
25/08:30pm 2.9 -0.3 2.8 99 0.0 E 9 13 5 7 1025.8 1026.0 0.0
25/08:00pm 2.4 -0.4 2.3 99 0.0 SE 6 9 3 5 1025.5 1025.6 0.0
25/07:30pm 2.6 0.6 2.5 99 0.0 SSE 2 6 1 3 1025.5 1025.6 0.0
25/07:00pm 3.1 0.3 3.0 99 0.0 SE 7 11 4 6 1025.4 1025.5 0.0
25/06:30pm 3.2 0.6 3.1 99 0.0 ESE 6 7 3 4 1025.4 1025.5 0.0
25/06:00pm 3.6 0.5 3.5 99 0.0 SE 9 15 5 8 1024.8 1024.9 0.0
25/05:30pm 3.5 0.9 3.2 98 0.1 SE 6 7 3 4 1024.4 1024.4 0.0
25/05:00pm 3.8 1.0 3.4 97 0.2 ESE 7 11 4 6 1024.0 1024.1 0.0
25/04:30pm 3.8 0.7 3.7 99 0.0 ESE 9 13 5 7 1024.0 1024.1 0.0
25/04:05pm 3.9 -0.3 3.8 99 0.0 SE 15 20 8 11 1023.9 1024.0 0.0
25/04:00pm 4.2 0.4 4.1 99 0.0 ESE 13 19 7 10 1023.9 1024.0 0.0
25/03:41pm 5.0 1.0 4.7 98 0.1 ESE 15 17 8 9 1023.9 1024.0 0.0
25/03:30pm 5.2 1.1 4.6 96 0.3 SE 15 19 8 10 1023.9 1024.0 0.0
25/03:00pm 5.5 1.3 4.0 90 0.7 ESE 15 22 8 12 1023.8 1023.9 0.0
25/02:30pm 5.9 1.8 4.4 90 0.7 ESE 15 22 8 12 1023.7 1023.7 0.0
25/02:00pm 4.9 1.1 4.0 94 0.4 SE 13 20 7 11 1024.0 1024.1 0.0
25/01:30pm 5.0 1.5 3.7 91 0.6 SSE 11 20 6 11 1023.9 1024.0 0.0
25/01:00pm 5.7 1.6 4.5 92 0.6 SE 15 24 8 13 1023.8 1023.9 0.0
25/12:30pm 5.2 0.9 5.1 99 0.0 ESE 17 26 9 14 1023.7 1023.7 0.0
25/12:00pm 4.7 -0.1 4.6 99 0.0 SE 19 30 10 16 1023.8 1023.9 0.0
25/11:40am 4.3 -0.6 4.2 99 0.0 SE 19 26 10 14 1023.9 1024.0 0.0
25/11:30am 4.1 -0.4 4.0 99 0.0 ESE 17 24 9 13 1024.0 1024.1 0.0
25/11:00am 4.4 -0.1 4.3 99 0.0 ESE 17 24 9 13 1024.0 1024.1 0.0
25/10:30am 3.8 -0.4 3.7 99 0.0 ESE 15 24 8 13 1024.0 1024.1 0.0
25/10:00am 3.7 0.2 3.6 99 0.0 SE 11 22 6 12 1023.8 1023.9 0.0
25/09:30am 3.6 -0.3 3.5 99 0.0 SSE 13 19 7 10 1023.6 1023.6 0.0
25/09:23am 3.6 -0.7 3.5 99 0.0 SSE 15 20 8 11 1023.5 1023.5 0.0
25/09:16am 3.3 -1.4 3.2 99 0.0 SSE 17 22 9 12 1023.3 1023.4 0.0
25/09:00am 3.0 -1.4 2.9 99 0.0 SSE 15 24 8 13 1023.3 1023.4 0.0
25/08:48am 3.0 -1.0 2.9 99 0.0 SSE 13 22 7 12 1023.3 1023.4 0.0
25/08:30am 2.7 -2.1 2.6 99 0.0 SSE 17 24 9 13 1023.1 1023.2 0.0
25/08:24am 2.6 -1.8 2.5 99 0.0 SSE 15 22 8 12 1023.0 1023.0 0.0
25/08:00am 2.3 -1.8 2.2 99 0.0 S 13 20 7 11 1023.1 1023.2 0.0
25/07:56am 2.3 -1.8 2.2 99 0.0 S 13 20 7 11 1023.1 1023.2 0.0
25/07:30am 2.1 -2.0 2.0 99 0.0 SSE 13 19 7 10 1023.0 1023.0 0.0
25/07:01am 1.8 -2.8 1.7 99 0.0 S 15 22 8 12 1022.6 1022.6 0.0
25/07:00am 1.8 -2.8 1.7 99 0.0 S 15 22 8 12 1022.6 1022.6 0.0
25/06:32am 1.8 -2.4 1.7 99 0.0 S 13 22 7 12 1022.4 1022.5 0.0
25/06:30am 1.7 -2.5 1.6 99 0.0 S 13 20 7 11 1022.4 1022.5 0.0
25/06:00am 1.7 -2.9 1.6 99 0.0 SSE 15 22 8 12 1022.2 1022.2 0.0
25/05:30am 1.8 -3.7 1.7 99 0.0 SSE 20 39 11 21 1022.1 1022.1 0.0
25/05:08am 2.5 -2.0 2.4 99 0.0 SSE 15 20 8 11 1021.9 1021.9 0.0
25/05:00am 2.6 -1.8 2.5 99 0.0 SSE 15 20 8 11 1021.8 1021.8 0.0
25/04:30am 2.8 -2.0 2.7 99 0.0 SSE 17 28 9 15 1021.5 1021.5 0.0
25/04:06am 2.9 -1.9 2.8 99 0.0 S 17 28 9 15 1021.4 1021.4 0.0
25/04:00am 2.9 -1.9 2.8 99 0.0 S 17 28 9 15 1021.5 1021.5 0.0
25/03:54am 2.9 -1.9 2.8 99 0.0 S 17 26 9 14 1021.5 1021.5 0.0
25/03:30am 2.9 -1.5 2.8 99 0.0 SSE 15 22 8 12 1021.6 1021.6 0.0
25/03:00am 2.9 -0.7 2.8 99 0.0 SSE 11 19 6 10 1021.8 1021.8 0.0
25/02:30am 2.8 -0.8 2.7 99 0.0 S 11 17 6 9 1021.5 1021.5 0.0
25/02:00am 2.7 -1.3 2.6 99 0.0 S 13 19 7 10 1021.6 1021.6 0.0
25/01:30am 2.5 -1.2 2.4 99 0.0 SSE 11 19 6 10 1021.5 1021.5 0.0
25/01:00am 2.2 -1.9 2.1 99 0.0 SSE 13 19 7 10 1021.6 1021.6 0.0
25/12:59am 2.2 -1.9 2.1 99 0.0 SSE 13 22 7 12 1021.6 1021.6 0.0
25/12:30am 1.9 -3.0 1.8 99 0.0 SSE 17 24 9 13 1021.5 1021.5 0.0
25/12:00am 1.9 -3.6 1.8 99 0.0 S 20 32 11 17 1021.6 1021.6 0.0
 
Date/Time
EST
Temp
°C
App
Temp
°C
Dew
Point
°C
Rel
Hum
%
Delta-T
°C
Wind Press
QNH
hPa
Press
MSL
hPa
Rain since
9am
mm
Dir  Spd
km/h
Gust
km/h
Spd
kts
Gust
kts
24/11:30pm 2.3 -3.1 2.2 99 0.0 SSE 20 30 11 16 1021.5 1021.5 0.0
24/11:14pm 2.4 -3.0 2.3 99 0.0 SSE 20 30 11 16 1021.4 1021.4 0.0
24/11:00pm 2.5 -2.7 2.4 99 0.0 SSE 19 28 10 15 1021.5 1021.5 0.0
24/10:31pm 2.4 -2.8 2.3 99 0.0 SSE 19 28 10 15 1021.3 1021.3 0.0
24/10:30pm 2.4 -2.8 2.3 99 0.0 SSE 19 28 10 15 1021.3 1021.3 0.0
24/10:18pm 2.2 -3.1 2.1 99 0.0 SSE 19 30 10 16 1021.2 1021.2 0.0
24/10:00pm 2.3 -2.9 2.2 99 0.0 S 19 28 10 15 1021.1 1021.1 0.0
24/09:56pm 2.3 -2.6 2.2 99 0.0 S 17 26 9 14 1021.1 1021.1 0.0
24/09:51pm 2.3 -2.6 2.2 99 0.0 S 17 28 9 15 1021.0 1020.9 0.0
24/09:30pm 2.3 -2.9 2.2 99 0.0 S 19 26 10 14 1021.0 1020.9 0.0
24/09:00pm 2.3 -2.6 2.2 99 0.0 SSE 17 28 9 15 1020.9 1020.8 0.0
24/08:30pm 2.1 -2.8 2.0 99 0.0 S 17 26 9 14 1020.7 1020.7 0.0
24/08:00pm 1.8 -2.8 1.7 99 0.0 S 15 24 8 13 1020.7 1020.7 0.0
24/07:51pm 1.9 -2.3 1.8 99 0.0 SSW 13 22 7 12 1020.7 1020.7 0.0
24/07:30pm 1.9 -3.4 1.6 98 0.1 S 19 30 10 16 1020.7 1020.7 0.0
24/07:00pm 2.1 -1.5 0.9 92 0.5 SSW 9 20 5 11 1020.7 1020.7 0.0
24/06:30pm 2.0 -3.1 0.8 92 0.5 SSE 17 28 9 15 1020.6 1020.6 0.0
24/06:00pm 2.6 -1.6 1.6 93 0.4 SSE 13 20 7 11 1020.3 1020.2 0.0
24/05:30pm 2.7 -1.5 1.7 93 0.4 S 13 19 7 10 1020.2 1020.1 0.0
24/05:00pm 2.8 -1.0 1.6 92 0.5 S 11 17 6 9 1019.7 1019.7 0.0
24/04:30pm 2.8 -2.5 1.6 92 0.5 SSE 19 30 10 16 1019.6 1019.5 0.0
24/04:00pm 3.4 -0.8 1.9 90 0.6 SSE 13 19 7 10 1019.3 1019.2 0.0
24/03:30pm 3.4 -1.6 1.4 87 0.8 S 17 24 9 13 1019.0 1019.0 0.0
24/03:00pm 3.7 -0.9 1.6 86 0.9 SSE 15 24 8 13 1018.9 1018.8 0.0
24/02:42pm 4.3 -0.5 0.5 76 1.6 SSE 15 22 8 12 1018.7 1018.6 0.0
24/02:40pm 4.5 -0.3 0.5 75 1.7 SSE 15 22 8 12 1018.7 1018.6 0.0
24/02:30pm 4.9 0.5 0.3 72 1.9 SSE 13 22 7 12 1018.7 1018.6 0.0
24/02:09pm 4.2 -1.4 0.2 75 1.7 S 19 28 10 15 1018.7 1018.6 0.0
24/02:00pm 5.4 0.3 0.6 71 2.0 SSE 17 30 9 16 1018.6 1018.5 0.0
24/01:59pm 5.7 0.7 1.1 72 2.0 SSE 17 30 9 16 1018.6 1018.5 0.0
24/01:30pm 3.8 -1.8 1.2 83 1.1 S 20 32 11 17 1018.7 1018.6 0.0
24/01:06pm 4.3 -1.1 1.3 81 1.3 S 19 32 10 17 1018.6 1018.5 0.0
24/01:03pm 4.0 -1.5 0.7 79 1.4 SSE 19 33 10 18 1018.5 1018.4 0.0
24/01:00pm 4.2 -1.4 0.9 79 1.4 SSE 20 33 11 18 1018.5 1018.4 0.0
24/12:30pm 4.0 -1.3 1.7 85 1.0 SSE 19 26 10 14 1018.7 1018.6 0.0
24/12:00pm 4.3 -0.6 2.2 86 0.9 SSE 17 30 9 16 1018.9 1018.8 0.0
24/11:30am 4.5 -0.7 2.2 85 1.0 SSE 19 30 10 16 1019.2 1019.1 0.0
24/11:00am 4.3 0.0 3.1 92 0.5 S 15 24 8 13 1019.4 1019.3 0.0
24/10:30am 3.5 -0.6 2.5 93 0.4 S 13 20 7 11 1019.3 1019.2 0.0
24/10:00am 2.9 -1.5 2.8 99 0.0 SSE 15 24 8 13 1019.2 1019.1 0.0
24/09:30am 2.7 -1.3 2.6 99 0.0 SSE 13 30 7 16 1018.9 1018.8 0.0
24/09:00am 2.4 -2.8 2.3 99 0.0 SSE 19 33 10 18 1018.7 1018.6 0.0
24/08:40am 2.8 -1.6 2.7 99 0.0 SSE 15 22 8 12 1018.4 1018.3 0.0
24/08:30am 2.7 -2.1 2.6 99 0.0 SSE 17 30 9 16 1018.1 1018.0 0.0
24/08:00am 2.7 -1.7 2.6 99 0.0 SSE 15 20 8 11 1017.9 1017.8 0.0
24/07:30am 2.5 -2.0 2.4 99 0.0 S 15 20 8 11 1017.7 1017.6 0.0
24/07:00am 2.3 -2.6 2.2 99 0.0 S 17 26 9 14 1017.4 1017.3 0.0
24/06:30am 2.3 -1.4 2.2 99 0.0 S 11 19 6 10 1017.1 1017.0 0.0
24/06:04am 2.2 -1.2 2.1 99 0.0 S 9 17 5 9 1017.0 1016.9 0.0
24/06:00am 2.2 -1.2 2.1 99 0.0 S 9 17 5 9 1016.9 1016.7 0.0
24/05:30am 2.1 -1.7 2.0 99 0.0 S 11 17 6 9 1016.7 1016.5 0.0
24/05:00am 2.0 -1.4 1.9 99 0.0 SSW 9 15 5 8 1016.4 1016.3 0.0
24/04:30am 2.0 -2.2 1.9 99 0.0 S 13 19 7 10 1016.3 1016.2 0.0
24/04:00am 1.9 -1.9 1.8 99 0.0 SSE 11 17 6 9 1016.3 1016.2 0.0
24/03:30am 1.8 -2.0 1.7 99 0.0 S 11 17 6 9 1016.2 1016.0 0.0
24/03:00am 1.7 -2.9 1.6 99 0.0 SSE 15 22 8 12 1016.2 1016.0 0.0
24/02:30am 1.7 -3.3 1.6 99 0.0 S 17 30 9 16 1016.1 1015.9 0.0
24/02:00am 1.8 -2.9 1.1 95 0.3 S 15 24 8 13 1016.1 1015.9 0.0
24/01:30am 2.0 -3.5 1.6 97 0.2 SSE 20 32 11 17 1016.0 1015.8 0.0
24/01:00am 2.1 -2.4 2.0 99 0.0 S 15 22 8 12 1015.9 1015.7 0.0
24/12:30am 2.1 -3.4 2.0 99 0.0 S 20 35 11 19 1015.9 1015.7 0.0
24/12:00am 2.3 -2.2 2.2 99 0.0 S 15 24 8 13 1015.5 1015.3 0.0
 
Date/Time
EST
Temp
°C
App
Temp
°C
Dew
Point
°C
Rel
Hum
%
Delta-T
°C
Wind Press
QNH
hPa
Press
MSL
hPa
Rain since
9am
mm
Dir  Spd
km/h
Gust
km/h
Spd
kts
Gust
kts
23/11:30pm 2.6 -2.2 2.5 99 0.0 S 17 33 9 18 1015.4 1015.2 0.0
23/11:00pm 2.8 -2.0 2.7 99 0.0 S 17 24 9 13 1015.4 1015.2 0.0
23/10:30pm 2.5 -2.9 2.4 99 0.0 S 20 35 11 19 1015.3 1015.1 0.0
23/10:00pm 2.7 -2.1 2.4 98 0.1 S 17 26 9 14 1015.2 1015.0 0.0
23/09:30pm 2.7 -2.1 2.4 98 0.1 S 17 28 9 15 1015.2 1015.0 0.0
23/09:00pm 2.7 -2.7 2.6 99 0.0 S 20 35 11 19 1015.1 1014.9 0.0
23/08:30pm 2.6 -1.8 2.5 99 0.0 S 15 32 8 17 1015.1 1014.9 0.0
23/08:00pm 2.5 -2.0 2.4 99 0.0 SSW 15 30 8 16 1014.7 1014.5 0.0
23/07:30pm 2.5 -2.4 2.2 98 0.1 S 17 30 9 16 1014.5 1014.3 0.0
23/07:00pm 2.5 -1.8 1.3 92 0.5 S 13 24 7 13 1014.7 1014.5 0.0
23/06:30pm 2.3 -2.8 1.0 91 0.5 S 17 30 9 16 1014.6 1014.4 0.0
23/06:00pm 2.2 -3.5 0.7 90 0.6 S 20 35 11 19 1014.3 1014.1 0.0
23/05:30pm 2.2 -3.3 0.9 91 0.5 S 19 30 10 16 1014.0 1013.8 0.0

Other formats

Comma delimited format used in spreadsheet applications
http://www.bom.gov.au/fwo/IDV60801/IDV60801.94905.axf

JavaScript Object Notation format (JSON) in row-major order
http://www.bom.gov.au/fwo/IDV60801/IDV60801.94905.json

Data quality

Most of these data are generated automatically and are frequently updated. Quality checks on data are not normally performed. It is possible for incorrect values to appear. Refer to information at About Latest Weather Observations and please check the disclaimer before using these data.